Flight Track Log - Related Links

Times and Time Zones

All times are in EDT time to prevent confusion due to time zone crossing. See the BJS542 flight status page for this flight to view local times or setup timezone preferences in your user account.

Time Position Orientation Groundspeed Altitude Reporting Facility
EDT Latitude Longitude Course Direction KTS MPH feet Rate Location/Type
Thu 07:38:03 PM 41.8333 -87.7667 85° East 215 247 3,000  Level Chicago TRACON
Thu 07:39:01 PM 41.8244 -87.6747 97° East 262 302 3,200 1,850 Climbing Chicago Center
Thu 07:40:03 PM 41.8064 -87.5781 104° East 265 305 6,700 3,629 Climbing Chicago Center
Thu 07:41:05 PM 41.7947 -87.4711 98° East 289 333 10,700 3,726 Climbing Chicago Center
Thu 07:42:07 PM 41.7869 -87.3600 95° East 298 343 14,400 3,194 Climbing Chicago Center
Thu 07:43:00 PM 41.7513 -86.8145 85° East  Level FlightAware Approximate
Thu 07:43:09 PM 41.7753 -87.2294 97° East 348 400 17,300  Level Chicago Center
Thu 07:44:11 PM 41.7842 -87.0936 85° East 374 430 20,000 2,952 Climbing Chicago Center
Thu 07:45:13 PM 41.8167 -86.9236 76° East 394 453 23,400 2,758 Climbing Chicago Center
Thu 07:46:15 PM 41.8458 -86.7744 75° East 412 474 25,700 2,064 Climbing Chicago Center
Thu 07:47:18 PM 41.8728 -86.6339 76° East 425 489 27,700 1,776 Climbing Chicago Center
Thu 07:48:20 PM 41.9033 -86.4692 76° East 451 519 29,400 1,887 Climbing Chicago Center
Thu 07:49:22 PM 41.9417 -86.2653 76° East 467 537 31,600 1,839 Climbing Chicago Center
Thu 07:50:24 PM 41.9758 -86.0906 75° East 479 551 33,200 1,355 Climbing Chicago Center
Thu 07:51:26 PM 42.0081 -85.9122 76° East 487 560 34,400 871 Climbing Chicago Center
Thu 07:52:28 PM 42.0447 -85.7117 76° East 495 570 35,000 290 Climbing Chicago Center
Thu 07:53:30 PM 42.0783 -85.5311 76° East 500 575 35,000 968 Level Chicago Center
Thu 07:54:32 PM 42.1103 -85.3514 76° East 497 572 37,000 1,790 Climbing Chicago Center
Thu 07:55:34 PM 42.1417 -85.1742 77° East 490 564 38,700 1,645 Climbing Chicago Center
Thu 07:56:36 PM 42.1731 -85.0022 76° East 483 556 40,400 1,488 Climbing Chicago Center
Thu 07:57:39 PM 42.2075 -84.8011 77° East 465 535 41,800 912 Climbing Chicago Center
Thu 07:58:41 PM 42.2361 -84.6322 77° East 465 535 42,300 484 Climbing Chicago Center
Thu 07:59:43 PM 42.2656 -84.4592 77° East 473 544 42,800 484 Climbing Chicago Center
Thu 08:00:45 PM 42.3064 -84.2864 72° East 482 555 43,300 545 Climbing Chicago Center
Thu 08:01:44 PM 42.3500 -84.1036 72° East 472 543 43,900 559 Climbing Cleveland Center
Thu 08:02:43 PM 42.3947 -83.9347 70° East 472 543 44,400 504 Climbing Cleveland Center
Thu 08:03:43 PM 42.4392 -83.7597 71° East 477 549 44,900 300 Climbing Cleveland Center
Thu 08:04:43 PM 42.4769 -83.6011 72° East 477 549 45,000 50 Climbing Cleveland Center
Thu 08:05:43 PM 42.5211 -83.4200 72° East 487 560 45,000  Level Cleveland Center
Thu 08:06:43 PM 42.5608 -83.2442 73° East 487 560 45,000  Level Cleveland Center
Thu 08:07:43 PM 42.6022 -83.0628 73° East 492 566 45,000  Level Cleveland Center
Thu 08:08:44 PM 42.6456 -82.8867 71° East 492 566 45,000  Level Cleveland Center
Thu 08:09:43 PM 42.6864 -82.7100 72° East 492 566 45,000  Level Cleveland Center
Thu 08:10:43 PM 42.7292 -82.5306 72° East 497 572 45,000  Level Cleveland Center
Thu 08:11:43 PM 42.7697 -82.3481 73° East 497 572 45,000  Level Cleveland Center
Thu 08:12:43 PM 42.8097 -82.1708 73° East 497 572 45,000  Level Cleveland Center
Thu 08:14:40 PM 42.8833 -81.8000 75° East 500 575 45,000  Level Toronto Center
Thu 08:15:40 PM 42.9333 -81.6167 70° East 500 575 45,000  Level Toronto Center
Thu 08:16:40 PM 42.9667 -81.4333 76° East 500 575 45,000  Level Toronto Center
Thu 08:17:40 PM 43.0333 -81.2500 64° Northeast 500 575 45,000  Level Toronto Center
Thu 08:18:40 PM 43.0833 -81.1000 65° Northeast 500 575 45,000  Level Toronto Center
Thu 08:19:40 PM 43.1500 -80.9167 63° Northeast 500 575 45,000  Level Toronto Center
Thu 08:20:40 PM 43.2167 -80.7500 61° Northeast 500 575 45,000  Level Toronto Center
Thu 08:21:40 PM 43.2833 -80.5667 63° Northeast 500 575 45,000  Level Toronto Center
Thu 08:22:40 PM 43.3333 -80.4167 65° Northeast 500 575 45,000  Level Toronto Center
Thu 08:23:40 PM 43.4000 -80.2333 63° Northeast 500 575 45,000  Level Toronto Center
Thu 08:24:40 PM 43.4500 -80.0667 67° East 500 575 45,000  Level Toronto Center
Thu 08:25:40 PM 43.5167 -79.8833 63° Northeast 500 575 45,000  Level Toronto Center
Thu 08:26:40 PM 43.5667 -79.7167 67° East 500 575 45,000  Level Toronto Center
Thu 08:27:40 PM 43.6333 -79.5333 63° Northeast 500 575 45,000  Level Toronto Center
Thu 08:28:40 PM 43.6833 -79.3500 69° East 500 575 45,000  Level Toronto Center
Thu 08:29:40 PM 43.7500 -79.2000 58° Northeast 490 564 45,000  Level Toronto Center
Thu 08:30:40 PM 43.8000 -79.0167 69° East 500 575 45,000  Level Toronto Center
Thu 08:31:40 PM 43.8667 -78.8500 61° Northeast 500 575 45,000  Level Toronto Center
Thu 08:32:40 PM 43.9167 -78.6667 69° East 500 575 45,000  Level Toronto Center
Thu 08:33:40 PM 43.9667 -78.5000 67° East 500 575 45,000  Level Toronto Center
Thu 08:34:40 PM 44.0167 -78.3167 69° East 500 575 45,000  Level Toronto Center
Thu 08:35:40 PM 44.0667 -78.1167 71° East 510 587 45,000  Level Toronto Center
Thu 08:36:40 PM 44.1167 -77.9667 65° Northeast 510 587 45,000  Level Toronto Center
Thu 08:37:40 PM 44.1833 -77.7500 67° East 510 587 45,000  Level Toronto Center
Thu 08:38:40 PM 44.2333 -77.5833 67° East 510 587 45,000  Level Toronto Center
Thu 08:39:40 PM 44.3000 -77.4000 63° Northeast 510 587 45,000  Level Toronto Center
Thu 08:40:40 PM 44.3333 -77.2000 77° East 500 575 45,000  Level Toronto Center
Thu 08:41:40 PM 44.3833 -77.0167 69° East 510 587 45,000  Level Toronto Center
Thu 08:42:49 PM 44.4500 -76.8667 58° Northeast 510 587 45,000  Level Montreal Center
Thu 08:43:49 PM 44.5000 -76.6500 72° East 510 587 45,000  Level Montreal Center
Thu 08:44:49 PM 44.5500 -76.4833 67° East 510 587 45,000 -550 Level Montreal Center
Thu 08:45:49 PM 44.6000 -76.2667 72° East 510 587 43,900 -1,900 Descending Montreal Center
Thu 08:46:49 PM 44.6500 -76.1167 65° Northeast 510 587 41,200 -2,700 Descending Montreal Center
Thu 08:47:49 PM 44.7000 -75.9167 71° East 510 587 38,500 -2,750 Descending Montreal Center
Thu 08:48:49 PM 44.7667 -75.7333 63° Northeast 510 587 35,700 -2,800 Descending Montreal Center
Thu 08:49:49 PM 44.8333 -75.5667 61° Northeast 520 598 32,900 -2,850 Descending Montreal Center
Thu 08:50:49 PM 44.8833 -75.3500 72° East 530 610 30,000 -2,750 Descending Montreal Center
Thu 08:51:49 PM 44.9500 -75.1833 60° Northeast 510 587 27,400 -2,650 Descending Montreal Center
Thu 08:52:49 PM 45.0167 -75.0000 63° Northeast 490 564 24,700 -2,600 Descending Montreal Center
Thu 08:53:49 PM 45.0667 -74.8333 67° East 470 541 22,200 -2,550 Descending Montreal Center
Thu 08:54:49 PM 45.1167 -74.6667 67° East 450 518 19,600 -2,350 Descending Montreal Center
Thu 08:55:49 PM 45.1667 -74.5167 65° Northeast 430 495 17,500 -2,150 Descending Montreal Center
Thu 08:56:49 PM 45.2167 -74.3500 67° East 410 472 15,300 -2,050 Descending Montreal Center
Thu 08:57:49 PM 45.2833 -74.2333 51° Northeast 390 449 13,400 -1,800 Descending Montreal Center
Thu 08:58:49 PM 45.3333 -74.1167 59° Northeast 360 414 11,700 -1,700 Descending Montreal Center
Thu 08:59:49 PM 45.3833 -74.0167 55° Northeast 320 368 10,000 -1,500 Descending Montreal Center
Thu 09:00:49 PM 45.4333 -73.9167 55° Northeast 300 345 8,700 -1,250 Descending Montreal Center
Thu 09:01:49 PM 45.5000 -73.8333 41° Northeast 270 311 7,500 -1,450 Descending Montreal Center
Thu 09:02:49 PM 45.5500 -73.7833 35° Northeast 270 311 5,800 -1,700 Descending Montreal Center
Thu 09:03:49 PM 45.6000 -73.7000 49° Northeast 270 311 4,100 -1,050 Descending Montreal Center
Thu 09:04:49 PM 45.6333 -73.6000 64° Northeast 250 288 3,700 -500 Descending Montreal Center
Thu 09:05:49 PM 45.5833 -73.5500 145° Southeast 210 242 3,100 -650 Descending Montreal Center
Thu 09:06:49 PM 45.5500 -73.6000 226° Southwest 160 184 2,400 -700 Descending Montreal Center
Thu 09:07:49 PM 45.5167 -73.6167 199° South 140 161 1,700 -750 Descending Montreal Center
Thu 09:08:49 PM 45.5000 -73.6667 245° Southwest 130 150 900 -700 Descending Montreal Center
Thu 09:09:49 PM 45.4667 -73.7000 215° Southwest 120 138 300 -400 Descending Montreal Center
Thu 09:10:49 PM 45.4500 -73.7167 215° Southwest 30 35 100 -200 Descending Montreal Center

Login

Don't have an account? Register now (free) for customized features, flight alerts, and more!